createdAt,value
2019-05-14T00:02:21.479Z,2.80
2019-05-14T00:04:51.249Z,4.53
2019-05-14T00:07:22.163Z,2.43
2019-05-14T00:09:52.657Z,6.62
2019-05-14T00:12:22.326Z,3.42
2019-05-14T00:14:51.604Z,4.08
2019-05-14T00:17:21.497Z,3.15
2019-05-14T00:20:05.926Z,3.60
2019-05-14T00:22:21.851Z,2.10
2019-05-14T00:24:51.994Z,3.67
2019-05-14T00:27:21.879Z,4.35
2019-05-14T00:29:51.861Z,8.93
2019-05-14T00:32:21.639Z,3.85
2019-05-14T00:34:51.570Z,2.40
2019-05-14T00:37:21.767Z,2.77
2019-05-14T00:39:52.168Z,3.60
2019-05-14T00:42:21.594Z,5.40
2019-05-14T00:44:57.490Z,4.43
2019-05-14T00:47:21.768Z,3.60
2019-05-14T00:49:51.808Z,5.90
2019-05-14T00:52:22.244Z,3.55
2019-05-14T00:54:52.233Z,3.70
2019-05-14T00:57:21.216Z,3.00
2019-05-14T00:59:51.904Z,4.30
2019-05-14T01:02:21.612Z,3.75
2019-05-14T01:04:51.572Z,5.28
2019-05-14T01:07:21.216Z,7.95
2019-05-14T01:09:52.151Z,3.75
2019-05-14T01:12:21.402Z,3.13
2019-05-14T01:14:52.929Z,3.77
2019-05-14T01:17:22.118Z,3.42
2019-05-14T01:19:51.303Z,3.80
2019-05-14T01:22:21.256Z,2.70
2019-05-14T01:24:52.042Z,4.10
2019-05-14T01:27:21.113Z,5.60
2019-05-14T01:29:51.393Z,5.58
2019-05-14T01:32:21.944Z,3.52
2019-05-14T01:34:51.951Z,3.30
2019-05-14T01:37:21.893Z,4.90
2019-05-14T01:39:51.987Z,2.60
2019-05-14T01:42:21.669Z,4.00
2019-05-14T01:44:51.940Z,3.70
2019-05-14T01:47:21.415Z,4.22
2019-05-14T01:49:51.504Z,3.35
2019-05-14T01:52:21.764Z,3.58
2019-05-14T01:54:51.506Z,4.75
2019-05-14T01:57:21.944Z,6.72
2019-05-14T01:59:51.637Z,5.83
2019-05-14T02:02:22.045Z,4.15
2019-05-14T02:04:51.257Z,3.08
2019-05-14T02:07:22.116Z,6.17
2019-05-14T02:09:51.787Z,3.70
2019-05-14T02:12:22.341Z,3.37
2019-05-14T02:14:51.264Z,6.03
2019-05-14T02:17:21.306Z,4.40
2019-05-14T02:19:51.541Z,2.70
2019-05-14T02:22:21.684Z,3.75
2019-05-14T02:24:51.759Z,6.40
2019-05-14T02:27:21.397Z,4.50
2019-05-14T02:29:51.907Z,4.47
2019-05-14T02:32:20.365Z,3.70
2019-05-14T02:34:49.930Z,4.03
2019-05-14T02:37:19.473Z,6.62
2019-05-14T02:39:50.265Z,5.17
2019-05-14T02:42:19.649Z,5.57
2019-05-14T02:44:49.001Z,7.90
2019-05-14T02:47:19.441Z,7.35
2019-05-14T02:49:50.257Z,8.35
2019-05-14T02:52:20.391Z,3.65
2019-05-14T02:54:49.599Z,5.58
2019-05-14T02:57:19.980Z,6.27
2019-05-14T02:59:50.145Z,4.78
2019-05-14T03:02:18.843Z,5.97
2019-05-14T03:04:49.922Z,4.67
2019-05-14T03:07:19.435Z,4.55
2019-05-14T03:09:50.258Z,5.55
2019-05-14T03:12:19.388Z,4.12
2019-05-14T03:14:49.907Z,6.33
2019-05-14T03:17:19.886Z,4.30
2019-05-14T03:19:49.643Z,4.70
2019-05-14T03:22:26.867Z,4.83
2019-05-14T03:24:50.312Z,5.90
2019-05-14T03:27:19.422Z,5.17
2019-05-14T03:29:49.862Z,6.30
2019-05-14T03:32:22.317Z,4.15
2019-05-14T03:34:53.264Z,5.72
2019-05-14T03:37:23.449Z,8.90
2019-05-14T03:39:49.424Z,5.20
2019-05-14T03:42:19.271Z,5.10
2019-05-14T03:44:49.020Z,6.45
2019-05-14T03:47:19.693Z,5.30
2019-05-14T03:49:49.937Z,9.13
2019-05-14T03:52:20.030Z,10.88
2019-05-14T03:54:49.702Z,11.03
2019-05-14T03:57:20.034Z,8.20
2019-05-14T03:59:49.932Z,6.95
2019-05-14T04:02:19.807Z,8.20
2019-05-14T04:04:50.225Z,7.10
2019-05-14T04:07:19.680Z,8.50
2019-05-14T04:09:49.573Z,8.53
2019-05-14T04:12:19.377Z,6.12
2019-05-14T04:14:50.373Z,6.62
2019-05-14T04:17:32.598Z,7.00
2019-05-14T04:19:50.840Z,7.12
2019-05-14T04:22:22.138Z,6.25
2019-05-14T04:24:50.451Z,6.12
2019-05-14T04:27:20.561Z,9.58
2019-05-14T04:29:51.266Z,5.83
2019-05-14T04:32:20.772Z,6.67
2019-05-14T04:34:50.151Z,6.05
2019-05-14T04:37:20.127Z,5.40
2019-05-14T04:39:50.339Z,8.23
2019-05-14T04:42:20.300Z,5.75
2019-05-14T04:44:50.439Z,6.75
2019-05-14T04:47:30.419Z,6.55
2019-05-14T04:49:50.576Z,5.90
2019-05-14T04:52:20.421Z,4.53
2019-05-14T04:54:50.083Z,6.10
2019-05-14T04:57:21.371Z,6.13
2019-05-14T04:59:49.486Z,5.75
2019-05-14T05:02:19.743Z,6.40
2019-05-14T05:04:50.671Z,5.87
2019-05-14T05:07:19.231Z,5.80
2019-05-14T05:09:50.174Z,4.33
2019-05-14T05:12:19.717Z,4.75
2019-05-14T05:14:49.245Z,6.00
2019-05-14T05:17:19.626Z,6.03
2019-05-14T05:19:51.683Z,6.28
2019-05-14T05:22:19.584Z,4.85
2019-05-14T05:24:48.506Z,6.87
2019-05-14T05:27:18.476Z,6.05
2019-05-14T05:29:48.540Z,6.08
2019-05-14T05:32:19.408Z,5.75
2019-05-14T05:34:48.273Z,5.47
2019-05-14T05:37:18.957Z,9.30
2019-05-14T05:39:49.142Z,5.30
2019-05-14T05:42:18.842Z,5.40
2019-05-14T05:44:48.524Z,6.42
2019-05-14T05:47:18.309Z,4.73
2019-05-14T05:49:48.867Z,8.85
2019-05-14T05:52:19.139Z,5.47
2019-05-14T05:54:49.005Z,5.90
2019-05-14T05:57:18.731Z,8.03
2019-05-14T05:59:48.515Z,5.90
2019-05-14T06:02:18.599Z,6.08
2019-05-14T06:04:48.090Z,5.83
2019-05-14T06:07:18.351Z,7.23
2019-05-14T06:09:48.272Z,7.70
2019-05-14T06:12:18.927Z,4.95
2019-05-14T06:14:48.759Z,9.08
2019-05-14T06:17:19.124Z,9.90
2019-05-14T06:19:48.676Z,8.40
2019-05-14T06:22:18.806Z,10.50
2019-05-14T06:24:48.611Z,7.00
2019-05-14T06:27:18.202Z,6.80
2019-05-14T06:29:49.009Z,8.50
2019-05-14T06:32:18.675Z,10.90
2019-05-14T06:34:48.964Z,9.18
2019-05-14T06:37:19.226Z,9.58
2019-05-14T06:39:48.417Z,10.55
2019-05-14T06:42:19.078Z,10.63
2019-05-14T06:44:49.188Z,7.78
2019-05-14T06:47:18.427Z,7.22
2019-05-14T06:49:48.847Z,8.18
2019-05-14T06:52:18.728Z,10.87
2019-05-14T06:54:49.686Z,11.75
2019-05-14T06:57:18.080Z,7.53
2019-05-14T06:59:48.457Z,12.05
2019-05-14T07:02:19.128Z,8.93
2019-05-14T07:04:48.523Z,9.80
2019-05-14T07:07:20.351Z,12.75
2019-05-14T07:09:48.842Z,9.85
2019-05-14T07:12:19.160Z,13.38
2019-05-14T07:14:48.313Z,13.43
2019-05-14T07:17:18.276Z,11.20
2019-05-14T07:19:49.028Z,11.15
2019-05-14T07:22:19.513Z,9.75
2019-05-14T07:24:49.631Z,11.25
2019-05-14T07:27:19.232Z,10.25
2019-05-14T07:29:49.156Z,11.80
2019-05-14T07:32:19.164Z,8.68
2019-05-14T07:34:48.270Z,8.63
2019-05-14T07:37:18.100Z,10.32
2019-05-14T07:39:48.622Z,12.33
2019-05-14T07:42:18.356Z,9.23
2019-05-14T07:44:48.590Z,8.58
2019-05-14T07:47:18.711Z,9.55
2019-05-14T07:49:48.948Z,12.00
2019-05-14T07:52:19.631Z,9.83
2019-05-14T07:54:48.145Z,8.00
2019-05-14T07:57:18.961Z,12.47
2019-05-14T07:59:48.398Z,10.90
2019-05-14T08:02:19.407Z,11.65
2019-05-14T08:04:48.736Z,11.83
2019-05-14T08:07:18.009Z,9.78
2019-05-14T08:09:48.068Z,11.95
2019-05-14T08:12:19.200Z,7.37
2019-05-14T08:15:09.543Z,10.68
2019-05-14T08:17:18.924Z,7.63
2019-05-14T08:19:49.144Z,12.85
2019-05-14T08:22:18.659Z,12.25
2019-05-14T08:24:48.991Z,8.68
2019-05-14T08:27:19.192Z,9.48
2019-05-14T08:29:48.719Z,11.25
2019-05-14T08:32:19.076Z,8.08
2019-05-14T08:34:48.140Z,10.57
2019-05-14T08:37:19.122Z,9.70
2019-05-14T08:39:48.670Z,9.97
2019-05-14T08:42:18.617Z,11.47
2019-05-14T08:44:50.855Z,7.20
2019-05-14T08:47:18.374Z,8.03
2019-05-14T08:49:50.522Z,8.87
2019-05-14T08:52:19.019Z,7.97
2019-05-14T08:54:49.049Z,7.75
2019-05-14T08:57:18.938Z,11.83
2019-05-14T08:59:48.613Z,8.00
2019-05-14T09:02:19.576Z,7.10
2019-05-14T09:04:53.524Z,7.33
2019-05-14T09:07:18.551Z,8.73
2019-05-14T09:09:48.814Z,10.53
2019-05-14T09:12:18.751Z,8.75
2019-05-14T09:14:48.299Z,8.20
2019-05-14T09:17:18.474Z,7.63
2019-05-14T09:20:01.086Z,8.57
2019-05-14T09:22:18.546Z,9.58
2019-05-14T09:24:49.121Z,9.65
2019-05-14T09:27:19.238Z,8.85
2019-05-14T09:29:48.435Z,8.80
2019-05-14T09:32:19.132Z,6.72
2019-05-14T09:34:48.664Z,8.03
2019-05-14T09:37:19.295Z,8.93
2019-05-14T09:39:48.842Z,7.10
2019-05-14T09:42:19.596Z,9.85
2019-05-14T09:44:49.047Z,7.63
2019-05-14T09:47:18.961Z,6.70
2019-05-14T09:49:49.106Z,5.80
2019-05-14T09:52:18.699Z,7.95
2019-05-14T09:54:49.394Z,9.73
2019-05-14T09:57:18.979Z,7.03
2019-05-14T09:59:47.952Z,6.25
2019-05-14T10:02:16.437Z,7.85
2019-05-14T10:04:44.729Z,6.72
2019-05-14T10:07:15.807Z,6.00
2019-05-14T10:09:43.701Z,6.80
2019-05-14T10:12:12.030Z,5.55
2019-05-14T10:14:40.354Z,5.53
2019-05-14T10:17:08.646Z,4.92
2019-05-14T10:19:39.382Z,5.30
2019-05-14T10:22:08.300Z,7.60
2019-05-14T10:24:38.616Z,5.20
2019-05-14T10:27:09.046Z,5.60
2019-05-14T10:29:39.136Z,7.97
2019-05-14T10:32:08.712Z,7.37
2019-05-14T10:34:36.905Z,6.30
2019-05-14T10:37:05.198Z,6.60
2019-05-14T10:39:33.515Z,5.57
2019-05-14T10:42:01.815Z,3.50
2019-05-14T10:44:30.423Z,5.17
2019-05-14T10:46:58.936Z,6.00
2019-05-14T10:49:29.697Z,6.12
2019-05-14T10:51:58.552Z,4.20
2019-05-14T10:54:29.311Z,5.25
2019-05-14T10:56:59.078Z,4.92
2019-05-14T10:59:29.392Z,7.43
2019-05-14T11:01:57.381Z,4.63
2019-05-14T11:04:28.431Z,4.77
2019-05-14T11:06:55.728Z,6.28
2019-05-14T11:09:24.293Z,6.47
2019-05-14T11:11:52.920Z,7.33
2019-05-14T11:14:21.225Z,4.92
2019-05-14T11:16:49.801Z,5.40
2019-05-14T11:19:18.809Z,6.00
2019-05-14T11:21:48.414Z,3.85
2019-05-14T11:24:18.885Z,6.50
2019-05-14T11:26:48.799Z,5.47
2019-05-14T11:29:18.575Z,4.93
2019-05-14T11:31:48.438Z,5.62
2019-05-14T11:34:19.237Z,7.60
2019-05-14T11:36:49.774Z,4.47
2019-05-14T11:39:18.100Z,6.00
2019-05-14T11:41:49.092Z,7.28
2019-05-14T11:44:16.563Z,6.43
2019-05-14T11:46:56.317Z,9.40
2019-05-14T11:49:15.600Z,7.17
2019-05-14T11:52:00.696Z,4.62
2019-05-14T11:54:13.958Z,5.20
2019-05-14T11:56:42.586Z,4.05
2019-05-14T11:59:10.891Z,5.33
2019-05-14T12:01:39.475Z,4.90
2019-05-14T12:04:09.047Z,4.22
2019-05-14T12:06:39.079Z,4.53
2019-05-14T12:09:11.497Z,3.08
2019-05-14T12:11:38.502Z,6.08
2019-05-14T12:14:08.921Z,6.60
2019-05-14T12:16:40.215Z,3.98
2019-05-14T12:19:11.626Z,4.25
2019-05-14T12:21:39.789Z,3.75
2019-05-14T12:24:13.450Z,4.20
2019-05-14T12:26:38.612Z,5.72
2019-05-14T12:29:09.586Z,3.65
2019-05-14T12:31:38.618Z,4.00
2019-05-14T12:34:07.093Z,5.45
2019-05-14T12:36:35.438Z,3.95
2019-05-14T12:39:05.395Z,4.72
2019-05-14T12:41:33.717Z,6.00
2019-05-14T12:44:02.024Z,4.10
2019-05-14T12:46:30.339Z,6.30
2019-05-14T12:48:59.179Z,3.72
2019-05-14T12:51:27.490Z,5.08
2019-05-14T12:53:58.117Z,4.12
2019-05-14T12:56:25.947Z,4.80
2019-05-14T12:58:54.239Z,4.92
2019-05-14T13:01:22.673Z,3.40
2019-05-14T13:03:51.348Z,6.70
2019-05-14T13:06:19.647Z,4.87
2019-05-14T13:08:49.174Z,9.28
2019-05-14T13:11:17.635Z,3.20
2019-05-14T13:13:45.923Z,2.72
2019-05-14T13:16:15.959Z,3.90
2019-05-14T13:18:44.255Z,3.47
2019-05-14T13:21:12.605Z,3.10
2019-05-14T13:23:40.954Z,5.65
2019-05-14T13:26:10.462Z,5.92
2019-05-14T13:28:40.218Z,4.85
2019-05-14T13:31:09.121Z,3.85
2019-05-14T13:33:39.341Z,4.15
2019-05-14T13:36:07.828Z,5.40
2019-05-14T13:38:39.287Z,6.05
2019-05-14T13:41:08.486Z,3.50
2019-05-14T13:43:38.743Z,5.60
2019-05-14T13:47:35.416Z,4.30
2019-05-14T13:50:05.095Z,4.13
2019-05-14T13:52:33.408Z,3.08
2019-05-14T13:55:02.038Z,3.47
2019-05-14T13:57:30.361Z,3.62
2019-05-14T13:59:58.974Z,4.75
2019-05-14T14:02:28.853Z,7.78
2019-05-14T14:04:59.006Z,3.83
2019-05-14T14:07:27.371Z,4.00
2019-05-14T14:09:55.676Z,4.50
2019-05-14T14:12:25.401Z,4.03
2019-05-14T14:14:53.964Z,3.35
2019-05-14T14:17:22.565Z,5.53
2019-05-14T14:19:51.153Z,4.65
2019-05-14T14:22:19.773Z,5.70
2019-05-14T14:24:48.823Z,5.40
2019-05-14T14:27:19.577Z,3.47
2019-05-14T14:29:49.320Z,4.20
2019-05-14T14:32:18.848Z,5.25
2019-05-14T14:34:47.387Z,5.00
2019-05-14T14:37:15.700Z,4.10
2019-05-14T14:39:44.268Z,4.90
2019-05-14T14:42:12.583Z,3.40
2019-05-14T14:44:40.889Z,4.47
2019-05-14T14:47:09.180Z,4.08
2019-05-14T14:49:43.455Z,2.80
2019-05-14T14:52:11.866Z,3.67
2019-05-14T14:54:38.186Z,4.37
2019-05-14T14:57:08.499Z,4.20
2019-05-14T14:59:39.026Z,2.50
2019-05-14T15:02:09.956Z,4.20
2019-05-14T15:04:39.715Z,4.70
2019-05-14T15:07:09.708Z,4.53
2019-05-14T15:09:36.797Z,2.60
2019-05-14T15:12:05.277Z,2.50
2019-05-14T15:14:33.576Z,2.80
2019-05-14T15:17:01.891Z,4.92
2019-05-14T15:19:30.185Z,4.35
2019-05-14T15:21:59.226Z,3.30
2019-05-14T15:24:27.524Z,4.00
2019-05-14T15:26:55.870Z,2.52
2019-05-14T15:29:24.485Z,4.28
2019-05-14T15:31:52.793Z,4.10
2019-05-14T15:34:21.167Z,4.12
2019-05-14T15:36:49.529Z,3.85
2019-05-14T15:39:19.017Z,5.00
2019-05-14T15:41:49.907Z,3.80
2019-05-14T15:44:19.628Z,4.87
2019-05-14T15:46:49.299Z,4.40
2019-05-14T15:49:19.175Z,5.00
2019-05-14T15:51:47.782Z,4.42
2019-05-14T15:54:36.206Z,4.92
2019-05-14T15:56:46.413Z,2.90
2019-05-14T15:59:14.794Z,6.55
2019-05-14T16:01:43.134Z,6.20
2019-05-14T16:04:11.641Z,2.87
2019-05-14T16:06:40.394Z,4.90
2019-05-14T16:09:08.751Z,2.20
2019-05-14T16:11:39.193Z,4.37
2019-05-14T16:14:07.938Z,3.30
2019-05-14T16:16:39.204Z,3.80
2019-05-14T16:19:08.238Z,3.12
2019-05-14T16:21:38.556Z,8.05
2019-05-14T16:24:08.341Z,1.70
2019-05-14T16:26:36.818Z,4.30
2019-05-14T16:29:05.120Z,2.70
2019-05-14T16:31:37.265Z,2.80
2019-05-14T16:34:03.830Z,5.97
2019-05-14T16:36:32.129Z,6.65
2019-05-14T16:39:00.452Z,2.50
2019-05-14T16:41:29.165Z,2.37
2019-05-14T16:43:58.723Z,3.37
2019-05-14T16:46:28.926Z,4.05
2019-05-14T16:48:58.239Z,3.05
2019-05-14T16:51:26.697Z,1.82
2019-05-14T16:53:54.984Z,3.95
2019-05-14T16:56:23.303Z,4.58
2019-05-14T16:58:51.611Z,5.28
2019-05-14T17:01:20.216Z,2.87
2019-05-14T17:03:49.394Z,2.42
2019-05-14T17:06:18.733Z,2.72
2019-05-14T17:08:48.982Z,1.40
2019-05-14T17:11:18.167Z,2.90
2019-05-14T17:13:48.807Z,2.90
2019-05-14T17:16:19.297Z,4.75
2019-05-14T17:18:48.580Z,3.35
2019-05-14T17:21:18.240Z,3.00
2019-05-14T17:23:48.953Z,6.15
2019-05-14T17:26:17.130Z,2.67
2019-05-14T17:28:45.439Z,3.60
2019-05-14T17:31:13.732Z,3.40
2019-05-14T17:33:42.316Z,2.85
2019-05-14T17:36:10.596Z,2.25
2019-05-14T17:38:39.317Z,2.15
2019-05-14T17:41:09.452Z,4.20
2019-05-14T17:43:39.437Z,2.90
2019-05-14T17:46:09.853Z,1.90
2019-05-14T17:48:39.085Z,5.58
2019-05-14T17:51:09.358Z,4.45
2019-05-14T17:53:38.637Z,4.25
2019-05-14T17:56:08.504Z,5.37
2019-05-14T17:58:38.434Z,2.57
2019-05-14T18:01:09.026Z,4.25
2019-05-14T18:03:39.674Z,3.80
2019-05-14T18:06:09.240Z,3.12
2019-05-14T18:08:37.074Z,3.92
2019-05-14T18:11:08.530Z,5.50
2019-05-14T18:13:35.863Z,3.50
2019-05-14T18:16:04.251Z,2.37
2019-05-14T18:18:32.534Z,2.80
2019-05-14T18:21:00.847Z,3.02
2019-05-14T18:23:29.155Z,2.80
2019-05-14T18:26:07.837Z,3.40
2019-05-14T18:28:28.955Z,2.52
2019-05-14T18:30:58.822Z,3.77
2019-05-14T18:33:30.991Z,7.05
2019-05-14T18:35:58.974Z,12.43
2019-05-14T18:38:29.070Z,8.55
2019-05-14T18:40:58.622Z,4.72
2019-05-14T18:43:28.923Z,5.40
2019-05-14T18:45:58.666Z,3.10
2019-05-14T18:48:29.007Z,2.45
2019-05-14T18:50:59.340Z,3.03
2019-05-14T18:53:28.065Z,4.20
2019-05-14T18:55:56.550Z,2.80
2019-05-14T18:58:26.165Z,1.60
2019-05-14T19:00:54.884Z,2.17
2019-05-14T19:03:23.458Z,2.92
2019-05-14T19:05:51.894Z,3.00
2019-05-14T19:08:20.270Z,3.52
2019-05-14T19:10:49.606Z,3.50
2019-05-14T19:13:18.703Z,2.17
2019-05-14T19:15:48.327Z,1.42
2019-05-14T19:18:19.061Z,2.10
2019-05-14T19:20:48.619Z,3.90
2019-05-14T19:23:18.789Z,4.33
2019-05-14T19:25:48.326Z,1.60
2019-05-14T19:28:18.757Z,3.80
2019-05-14T19:30:48.778Z,2.80
2019-05-14T19:33:20.360Z,3.07
2019-05-14T19:35:48.483Z,6.25
2019-05-14T19:38:18.855Z,4.90
2019-05-14T19:40:48.389Z,2.67
2019-05-14T19:43:18.925Z,2.90
2019-05-14T19:45:48.611Z,2.50
2019-05-14T19:48:18.929Z,2.00
2019-05-14T19:50:49.030Z,2.60
2019-05-14T19:53:17.038Z,4.93
2019-05-14T19:55:45.358Z,3.00
2019-05-14T19:58:13.666Z,2.92
2019-05-14T20:00:41.959Z,7.70
2019-05-14T20:03:10.272Z,3.30
2019-05-14T20:05:39.410Z,2.72
2019-05-14T20:08:08.706Z,1.70
2019-05-14T20:10:38.823Z,2.55
2019-05-14T20:13:07.355Z,3.20
2019-05-14T20:15:35.661Z,3.27
2019-05-14T20:18:04.014Z,2.58
2019-05-14T20:20:32.640Z,2.90
2019-05-14T20:23:00.944Z,2.27
2019-05-14T20:25:29.233Z,2.65
2019-05-14T20:27:58.800Z,2.87
2019-05-14T20:30:29.455Z,5.17
2019-05-14T20:32:59.289Z,6.30
2019-05-14T20:35:34.355Z,3.53
2019-05-14T20:37:58.568Z,6.25
2019-05-14T20:40:28.476Z,1.70
2019-05-14T20:42:58.820Z,3.58
2019-05-14T20:45:28.963Z,3.30
2019-05-14T20:47:58.563Z,3.10
2019-05-14T20:50:29.060Z,3.00
2019-05-14T20:52:59.231Z,9.53
2019-05-14T20:55:28.615Z,3.22
2019-05-14T20:57:58.818Z,5.80
2019-05-14T21:00:29.343Z,2.20
2019-05-14T21:02:59.510Z,1.98
2019-05-14T21:05:28.600Z,2.37
2019-05-14T21:07:58.861Z,4.85
2019-05-14T21:10:29.073Z,4.10
2019-05-14T21:12:58.124Z,4.33
2019-05-14T21:15:28.588Z,2.40
2019-05-14T21:17:59.270Z,4.42
2019-05-14T21:20:28.224Z,2.15
2019-05-14T21:22:58.526Z,4.60
2019-05-14T21:25:29.317Z,5.60
2019-05-14T21:27:58.753Z,5.22
2019-05-14T21:30:29.550Z,3.67
2019-05-14T21:33:00.124Z,7.87
2019-05-14T21:35:29.127Z,4.10
2019-05-14T21:37:59.397Z,4.70
2019-05-14T21:40:29.120Z,3.83
2019-05-14T21:42:58.246Z,5.28
2019-05-14T21:45:26.567Z,5.45
2019-05-14T21:47:54.875Z,2.90
2019-05-14T21:50:23.215Z,2.53
2019-05-14T21:52:51.571Z,4.03
2019-05-14T21:55:20.073Z,2.92
2019-05-14T21:57:56.351Z,3.30
2019-05-14T22:00:32.065Z,4.03
2019-05-14T22:03:00.690Z,4.90
2019-05-14T22:05:29.368Z,5.53
2019-05-14T22:07:58.066Z,3.30
2019-05-14T22:10:28.566Z,4.55
2019-05-14T22:12:58.336Z,2.90
2019-05-14T22:15:29.025Z,3.55
2019-05-14T22:17:58.742Z,3.80
2019-05-14T22:20:28.995Z,2.80
2019-05-14T22:22:59.138Z,4.00
2019-05-14T22:25:28.506Z,4.40
2019-05-14T22:28:10.849Z,2.12
2019-05-14T22:30:29.038Z,2.20
2019-05-14T22:33:00.403Z,3.17
2019-05-14T22:35:30.787Z,3.60
2019-05-14T22:37:59.502Z,5.95
2019-05-14T22:40:29.163Z,3.60
2019-05-14T22:43:00.349Z,3.20
2019-05-14T22:45:28.376Z,3.70
2019-05-14T22:47:58.868Z,2.85
2019-05-14T22:50:29.173Z,3.45
2019-05-14T22:52:58.462Z,3.20
2019-05-14T22:55:29.034Z,7.67
2019-05-14T22:57:59.253Z,4.05
2019-05-14T23:00:28.517Z,5.42
2019-05-14T23:02:57.317Z,2.33
2019-05-14T23:05:25.647Z,4.33
2019-05-14T23:07:54.160Z,2.60
2019-05-14T23:10:22.570Z,4.97
2019-05-14T23:12:50.907Z,3.87
2019-05-14T23:15:20.099Z,5.40
2019-05-14T23:17:48.695Z,4.45
2019-05-14T23:20:19.414Z,3.63
2019-05-14T23:22:49.280Z,2.87
2019-05-14T23:25:18.538Z,2.33
2019-05-14T23:27:48.191Z,3.45
2019-05-14T23:30:20.025Z,4.67
2019-05-14T23:32:49.011Z,3.98
2019-05-14T23:35:18.822Z,2.85
2019-05-14T23:37:48.894Z,2.98
2019-05-14T23:40:17.887Z,3.47
2019-05-14T23:42:48.758Z,4.12
2019-05-14T23:45:18.837Z,2.40
2019-05-14T23:47:48.992Z,2.77
2019-05-14T23:50:16.496Z,4.45
2019-05-14T23:52:44.839Z,5.55
2019-05-14T23:55:13.326Z,5.65
2019-05-14T23:57:41.641Z,4.85
